createdAt,value
2019-03-30T00:00:43.969Z,16.33
2019-03-30T00:03:14.874Z,15.27
2019-03-30T00:05:45.830Z,16.77
2019-03-30T00:08:16.735Z,15.43
2019-03-30T00:10:47.739Z,15.63
2019-03-30T00:13:18.703Z,16.43
2019-03-30T00:15:49.565Z,15.13
2019-03-30T00:18:20.457Z,15.67
2019-03-30T00:20:51.444Z,18.60
2019-03-30T00:23:22.352Z,17.17
2019-03-30T00:25:53.227Z,17.00
2019-03-30T00:28:24.142Z,16.77
2019-03-30T00:30:55.028Z,15.67
2019-03-30T00:33:25.931Z,17.03
2019-03-30T00:35:56.896Z,19.30
2019-03-30T00:38:27.844Z,16.30
2019-03-30T00:40:58.718Z,16.33
2019-03-30T00:43:29.615Z,18.07
2019-03-30T00:46:00.564Z,16.20
2019-03-30T00:48:31.469Z,16.87
2019-03-30T00:51:02.347Z,17.17
2019-03-30T00:53:33.287Z,14.90
2019-03-30T00:56:04.162Z,15.37
2019-03-30T00:58:35.111Z,15.47
2019-03-30T01:01:06.013Z,16.77
2019-03-30T01:03:36.908Z,18.70
2019-03-30T01:06:07.809Z,18.43
2019-03-30T01:08:38.715Z,14.77
2019-03-30T01:11:09.596Z,17.03
2019-03-30T01:13:40.568Z,18.23
2019-03-30T01:16:11.435Z,16.37
2019-03-30T01:18:42.363Z,18.30
2019-03-30T01:21:13.241Z,17.80
2019-03-30T01:23:44.198Z,19.60
2019-03-30T01:26:15.064Z,19.47
2019-03-30T01:28:46.016Z,18.07
2019-03-30T01:31:16.904Z,15.70
2019-03-30T01:33:47.805Z,17.60
2019-03-30T01:36:18.769Z,17.37
2019-03-30T01:38:50.759Z,15.37
2019-03-30T01:41:21.661Z,17.73
2019-03-30T01:43:52.566Z,16.37
2019-03-30T01:46:23.446Z,15.50
2019-03-30T01:48:54.375Z,15.57
2019-03-30T01:51:25.247Z,15.23
2019-03-30T01:53:56.214Z,14.93
2019-03-30T01:56:27.107Z,16.20
2019-03-30T01:58:58.044Z,16.57
2019-03-30T02:01:29.015Z,14.83
2019-03-30T02:03:59.937Z,15.63
2019-03-30T02:06:31.664Z,15.93
2019-03-30T02:09:02.576Z,16.40
2019-03-30T02:11:33.990Z,17.13
2019-03-30T02:14:04.991Z,14.30
2019-03-30T02:16:36.110Z,16.83
2019-03-30T02:19:07.200Z,15.27
2019-03-30T02:21:38.197Z,13.30
2019-03-30T02:24:09.138Z,13.60
2019-03-30T02:26:40.379Z,14.83
2019-03-30T02:29:11.417Z,15.03
2019-03-30T02:31:42.371Z,16.03
2019-03-30T02:34:15.186Z,15.07
2019-03-30T02:36:46.252Z,16.80
2019-03-30T02:39:17.592Z,14.43
2019-03-30T02:41:48.699Z,13.97
2019-03-30T02:44:19.797Z,16.47
2019-03-30T02:46:50.933Z,18.00
2019-03-30T02:49:21.907Z,14.20
2019-03-30T02:51:53.039Z,17.20
2019-03-30T02:54:24.011Z,16.70
2019-03-30T02:56:55.107Z,15.73
2019-03-30T02:59:26.088Z,15.53
2019-03-30T03:01:57.176Z,16.13
2019-03-30T03:04:28.184Z,14.20
2019-03-30T03:06:59.115Z,13.40
2019-03-30T03:09:30.041Z,14.17
2019-03-30T03:12:00.992Z,14.13
2019-03-30T03:14:32.119Z,15.75
2019-03-30T03:17:03.068Z,16.43
2019-03-30T03:19:34.009Z,15.07
2019-03-30T03:22:04.906Z,15.67
2019-03-30T03:24:35.819Z,14.17
2019-03-30T03:27:06.809Z,15.70
2019-03-30T03:29:37.842Z,15.80
2019-03-30T03:32:08.737Z,16.67
2019-03-30T03:34:39.649Z,15.77
2019-03-30T03:37:10.536Z,16.27
2019-03-30T03:39:41.453Z,19.03
2019-03-30T03:42:12.321Z,20.70
2019-03-30T03:44:43.217Z,16.90
2019-03-30T03:47:14.092Z,16.50
2019-03-30T03:49:45.019Z,17.03
2019-03-30T03:52:16.601Z,16.40
2019-03-30T03:54:47.579Z,18.57
2019-03-30T03:57:21.746Z,17.70
2019-03-30T03:59:53.657Z,18.03
2019-03-30T04:02:25.890Z,19.67
2019-03-30T04:04:58.426Z,17.70
2019-03-30T04:07:32.298Z,17.20
2019-03-30T04:10:05.567Z,19.53
2019-03-30T04:12:39.488Z,18.43
2019-03-30T04:15:12.262Z,20.27
2019-03-30T04:17:43.201Z,20.50
2019-03-30T04:20:17.039Z,20.70
2019-03-30T04:22:47.940Z,19.10
2019-03-30T04:25:18.931Z,19.87
2019-03-30T04:27:49.828Z,19.47
2019-03-30T04:30:20.871Z,19.60
2019-03-30T04:32:51.737Z,19.37
2019-03-30T04:35:22.623Z,19.63
2019-03-30T04:37:53.508Z,18.60
2019-03-30T04:40:24.415Z,19.20
2019-03-30T04:42:55.290Z,17.97
2019-03-30T04:45:26.205Z,18.00
2019-03-30T04:47:57.153Z,17.53
2019-03-30T04:50:28.123Z,18.63
2019-03-30T04:52:58.986Z,18.70
2019-03-30T04:55:29.946Z,16.73
2019-03-30T04:58:00.818Z,17.63
2019-03-30T05:00:32.431Z,19.23
2019-03-30T05:03:03.377Z,21.03
2019-03-30T05:05:34.312Z,21.57
2019-03-30T05:08:05.187Z,20.03
2019-03-30T05:10:37.105Z,23.02
2019-03-30T05:13:08.036Z,17.13
2019-03-30T05:15:39.054Z,18.03
2019-03-30T05:18:10.013Z,18.50
2019-03-30T05:20:41.034Z,19.35
2019-03-30T05:23:12.067Z,17.93
2019-03-30T05:25:43.199Z,19.25
2019-03-30T05:28:14.095Z,19.77
2019-03-30T05:30:45.177Z,19.65
2019-03-30T05:33:16.227Z,19.32
2019-03-30T05:35:47.136Z,18.27
2019-03-30T05:38:18.136Z,20.23
2019-03-30T05:40:49.279Z,18.87
2019-03-30T05:43:20.259Z,18.17
2019-03-30T05:45:51.641Z,20.57
2019-03-30T05:48:22.536Z,22.43
2019-03-30T05:50:53.687Z,22.70
2019-03-30T05:53:24.630Z,20.53
2019-03-30T05:55:55.673Z,19.60
2019-03-30T05:58:26.801Z,18.37
2019-03-30T06:00:57.729Z,18.20
2019-03-30T06:03:28.645Z,21.93
2019-03-30T06:05:59.679Z,19.13
2019-03-30T06:08:31.150Z,18.07
2019-03-30T06:11:02.078Z,17.03
2019-03-30T06:13:32.931Z,17.53
2019-03-30T06:16:03.903Z,16.83
2019-03-30T06:18:34.833Z,18.43
2019-03-30T06:21:05.839Z,16.47
2019-03-30T06:23:36.759Z,18.63
2019-03-30T06:26:07.686Z,16.10
2019-03-30T06:28:38.610Z,17.17
2019-03-30T06:31:09.552Z,18.47
2019-03-30T06:33:40.596Z,19.07
2019-03-30T06:36:11.538Z,18.90
2019-03-30T06:38:42.474Z,19.93
2019-03-30T06:41:13.424Z,17.73
2019-03-30T06:43:44.503Z,17.30
2019-03-30T06:46:15.429Z,16.73
2019-03-30T06:48:46.440Z,21.17
2019-03-30T06:51:17.343Z,16.20
2019-03-30T06:53:48.239Z,25.20
2019-03-30T06:56:19.164Z,16.93
2019-03-30T06:58:50.053Z,17.67
2019-03-30T07:01:21.264Z,15.47
2019-03-30T07:03:52.179Z,16.67
2019-03-30T07:06:23.803Z,15.17
2019-03-30T07:08:56.315Z,16.53
2019-03-30T07:11:30.456Z,14.23
2019-03-30T07:14:04.162Z,14.93
2019-03-30T07:16:37.242Z,14.93
2019-03-30T07:19:08.170Z,14.53
2019-03-30T07:21:39.092Z,13.70
2019-03-30T07:24:09.978Z,14.57
2019-03-30T07:26:40.881Z,13.67
2019-03-30T07:29:11.764Z,14.17
2019-03-30T07:31:42.678Z,15.77
2019-03-30T07:34:13.549Z,14.17
2019-03-30T07:36:44.492Z,15.03
2019-03-30T07:39:15.375Z,13.10
2019-03-30T07:41:46.295Z,13.80
2019-03-30T07:44:17.231Z,12.00
2019-03-30T07:46:48.147Z,13.53
2019-03-30T07:49:19.225Z,12.50
2019-03-30T07:51:50.146Z,12.40
2019-03-30T07:54:21.935Z,13.50
2019-03-30T07:57:04.154Z,13.13
2019-03-30T07:59:25.397Z,13.70
2019-03-30T08:01:56.365Z,13.17
2019-03-30T08:04:28.822Z,14.30
2019-03-30T08:06:59.888Z,14.63
2019-03-30T08:09:30.796Z,12.67
2019-03-30T08:12:01.754Z,13.50
2019-03-30T08:14:32.704Z,13.72
2019-03-30T08:17:03.832Z,13.50
2019-03-30T08:19:34.725Z,11.57
2019-03-30T08:22:05.626Z,12.90
2019-03-30T08:24:36.745Z,12.33
2019-03-30T08:27:07.703Z,13.33
2019-03-30T08:29:38.722Z,13.57
2019-03-30T08:32:09.812Z,13.80
2019-03-30T08:34:40.699Z,13.95
2019-03-30T08:37:16.148Z,15.47
2019-03-30T08:39:47.096Z,14.78
2019-03-30T08:42:18.663Z,15.27
2019-03-30T08:44:49.672Z,12.33
2019-03-30T08:47:20.623Z,13.40
2019-03-30T08:49:51.778Z,13.33
2019-03-30T08:52:22.692Z,12.97
2019-03-30T08:54:53.969Z,12.77
2019-03-30T08:57:25.035Z,13.73
2019-03-30T08:59:55.979Z,12.80
2019-03-30T09:02:26.901Z,13.43
2019-03-30T09:04:58.490Z,13.30
2019-03-30T09:07:29.605Z,13.67
2019-03-30T09:10:00.618Z,16.33
2019-03-30T09:12:32.884Z,13.80
2019-03-30T09:15:03.798Z,15.50
2019-03-30T09:17:37.346Z,13.93
2019-03-30T09:20:09.935Z,16.37
2019-03-30T09:22:40.883Z,16.53
2019-03-30T09:25:12.327Z,15.70
2019-03-30T09:27:43.278Z,16.83
2019-03-30T09:30:14.906Z,15.60
2019-03-30T09:32:45.840Z,15.63
2019-03-30T09:35:16.794Z,20.17
2019-03-30T09:37:50.396Z,18.10
2019-03-30T09:40:22.336Z,15.57
2019-03-30T09:42:53.269Z,16.90
2019-03-30T09:45:24.323Z,16.57
2019-03-30T09:47:55.281Z,13.77
2019-03-30T09:50:26.230Z,16.10
2019-03-30T09:52:58.324Z,16.77
2019-03-30T09:55:29.340Z,15.13
2019-03-30T09:58:00.356Z,16.67
2019-03-30T10:00:32.347Z,17.63
2019-03-30T10:03:05.909Z,18.27
2019-03-30T10:05:35.866Z,15.97
2019-03-30T10:08:06.845Z,17.50
2019-03-30T10:10:38.761Z,16.33
2019-03-30T10:13:10.702Z,15.83
2019-03-30T10:15:41.612Z,16.20
2019-03-30T10:18:12.531Z,15.80
2019-03-30T10:20:43.445Z,15.17
2019-03-30T10:23:14.387Z,16.30
2019-03-30T10:25:45.380Z,20.03
2019-03-30T10:28:16.329Z,18.10
2019-03-30T10:30:47.286Z,17.92
2019-03-30T10:33:18.231Z,18.67
2019-03-30T10:35:49.149Z,16.37
2019-03-30T10:38:20.051Z,18.87
2019-03-30T10:40:51.593Z,18.50
2019-03-30T10:43:22.592Z,18.27
2019-03-30T10:45:53.499Z,18.80
2019-03-30T10:48:24.419Z,18.33
2019-03-30T10:50:55.287Z,16.73
2019-03-30T10:53:26.202Z,18.63
2019-03-30T10:55:57.109Z,18.23
2019-03-30T10:58:28.175Z,16.00
2019-03-30T11:00:59.642Z,19.10
2019-03-30T11:03:31.523Z,20.50
2019-03-30T11:06:02.420Z,17.57
2019-03-30T11:08:33.432Z,18.10
2019-03-30T11:11:04.456Z,16.93
2019-03-30T11:13:35.363Z,17.60
2019-03-30T11:16:06.341Z,17.33
2019-03-30T11:18:37.444Z,18.17
2019-03-30T11:21:08.420Z,17.20
2019-03-30T11:23:39.474Z,17.87
2019-03-30T11:26:10.390Z,18.53
2019-03-30T11:28:42.264Z,18.30
2019-03-30T11:31:13.212Z,17.42
2019-03-30T11:33:44.135Z,15.08
2019-03-30T11:36:18.367Z,19.07
2019-03-30T11:38:47.869Z,16.57
2019-03-30T11:41:18.942Z,16.65
2019-03-30T11:43:50.040Z,14.37
2019-03-30T11:46:21.239Z,16.70
2019-03-30T11:48:53.426Z,16.15
2019-03-30T11:51:24.352Z,17.30
2019-03-30T11:53:55.335Z,14.43
2019-03-30T11:56:26.227Z,15.78
2019-03-30T11:58:58.567Z,13.08
2019-03-30T12:01:29.523Z,14.75
2019-03-30T12:04:00.428Z,13.98
2019-03-30T12:06:31.315Z,13.08
2019-03-30T12:09:02.240Z,14.95
2019-03-30T12:11:33.198Z,14.18
2019-03-30T12:14:04.177Z,14.50
2019-03-30T12:16:35.079Z,14.85
2019-03-30T12:19:06.162Z,13.03
2019-03-30T12:21:37.060Z,19.07
2019-03-30T12:24:07.994Z,13.03
2019-03-30T12:26:38.922Z,13.67
2019-03-30T12:29:09.815Z,13.53
2019-03-30T12:31:40.902Z,14.30
2019-03-30T12:34:13.159Z,13.93
2019-03-30T12:36:44.231Z,13.58
2019-03-30T12:39:15.658Z,12.35
2019-03-30T12:41:46.607Z,14.27
2019-03-30T12:44:17.526Z,8.48
2019-03-30T12:46:48.505Z,11.30
2019-03-30T12:49:21.060Z,9.65
2019-03-30T12:51:52.155Z,10.10
2019-03-30T12:54:23.538Z,8.93
2019-03-30T12:56:54.455Z,7.75
2019-03-30T12:59:25.391Z,6.87
2019-03-30T13:01:56.294Z,6.47
2019-03-30T13:04:27.714Z,7.28
2019-03-30T13:07:00.627Z,4.17
2019-03-30T13:09:34.921Z,6.40
2019-03-30T13:12:05.847Z,4.17
2019-03-30T13:14:37.797Z,3.87
2019-03-30T13:17:08.745Z,4.05
2019-03-30T13:19:39.785Z,8.38
2019-03-30T13:22:10.635Z,6.97
2019-03-30T13:24:41.575Z,5.55
2019-03-30T13:27:13.132Z,5.37
2019-03-30T13:29:44.105Z,6.50
2019-03-30T13:32:15.112Z,5.20
2019-03-30T13:34:46.022Z,6.78
2019-03-30T13:37:20.979Z,5.97
2019-03-30T13:39:51.887Z,6.10
2019-03-30T13:42:22.765Z,5.53
2019-03-30T13:44:53.677Z,5.67
2019-03-30T13:47:24.545Z,5.40
2019-03-30T13:49:55.542Z,6.33
2019-03-30T13:52:26.427Z,6.03
2019-03-30T13:54:57.439Z,6.42
2019-03-30T13:57:28.336Z,7.55
2019-03-30T13:59:59.258Z,7.40
2019-03-30T14:02:30.203Z,5.67
2019-03-30T14:05:01.176Z,5.40
2019-03-30T14:07:33.220Z,6.40
2019-03-30T14:10:04.251Z,6.78
2019-03-30T14:12:35.210Z,7.20
2019-03-30T14:15:09.359Z,7.80
2019-03-30T14:17:39.487Z,7.23
2019-03-30T14:20:11.071Z,5.78
2019-03-30T14:22:43.026Z,5.83
2019-03-30T14:25:14.428Z,5.97
2019-03-30T14:27:45.413Z,6.17
2019-03-30T14:30:17.060Z,8.95
2019-03-30T14:32:48.057Z,6.17
2019-03-30T14:35:18.948Z,6.22
2019-03-30T14:37:49.934Z,5.40
2019-03-30T14:40:20.845Z,6.05
2019-03-30T14:42:52.114Z,7.37
2019-03-30T14:45:23.022Z,5.90
2019-03-30T14:47:54.038Z,7.28
2019-03-30T14:50:35.829Z,6.50
2019-03-30T14:53:07.267Z,6.35
2019-03-30T14:55:39.737Z,6.10
2019-03-30T14:58:10.865Z,7.03
2019-03-30T15:00:53.052Z,6.87
2019-03-30T15:03:24.675Z,6.70
2019-03-30T15:05:56.804Z,6.72
2019-03-30T15:08:28.334Z,6.58
2019-03-30T15:11:00.135Z,6.03
2019-03-30T15:13:31.597Z,8.40
2019-03-30T15:16:03.099Z,5.30
2019-03-30T15:18:34.657Z,7.08
2019-03-30T15:21:08.470Z,5.87
2019-03-30T15:23:39.339Z,5.43
2019-03-30T15:26:10.811Z,6.10
2019-03-30T15:28:42.959Z,5.15
2019-03-30T15:31:14.585Z,6.37
2019-03-30T15:33:46.253Z,7.50
2019-03-30T15:36:17.217Z,5.22
2019-03-30T15:38:48.104Z,5.33
2019-03-30T15:41:19.448Z,5.78
2019-03-30T15:43:52.150Z,4.53
2019-03-30T15:46:23.232Z,4.80
2019-03-30T15:48:54.104Z,5.60
2019-03-30T15:51:25.073Z,6.17
2019-03-30T15:53:55.968Z,6.70
2019-03-30T15:56:26.869Z,6.65
2019-03-30T15:58:57.767Z,5.70
2019-03-30T16:01:28.675Z,7.50
2019-03-30T16:04:02.369Z,5.47
2019-03-30T16:06:32.298Z,5.83
2019-03-30T16:09:03.295Z,7.00
2019-03-30T16:11:34.472Z,5.37
2019-03-30T16:14:05.554Z,5.30
2019-03-30T16:16:36.484Z,8.28
2019-03-30T16:19:07.422Z,13.35
2019-03-30T16:21:38.335Z,12.68
2019-03-30T16:24:09.243Z,4.78
2019-03-30T16:26:42.371Z,5.25
2019-03-30T16:29:12.672Z,5.53
2019-03-30T16:31:43.587Z,5.50
2019-03-30T16:34:14.476Z,6.60
2019-03-30T16:36:45.444Z,7.22
2019-03-30T16:39:16.345Z,6.78
2019-03-30T16:41:47.357Z,6.17
2019-03-30T16:44:18.231Z,6.28
2019-03-30T16:46:49.131Z,5.78
2019-03-30T16:49:20.685Z,7.02
2019-03-30T16:51:51.596Z,5.30
2019-03-30T16:54:22.512Z,7.33
2019-03-30T16:56:53.474Z,5.80
2019-03-30T16:59:24.450Z,5.78
2019-03-30T17:01:55.354Z,5.15
2019-03-30T17:04:29.414Z,6.42
2019-03-30T17:06:58.833Z,5.50
2019-03-30T17:09:29.723Z,5.93
2019-03-30T17:12:00.624Z,7.43
2019-03-30T17:14:31.743Z,8.60
2019-03-30T17:17:02.647Z,9.70
2019-03-30T17:19:33.531Z,9.37
2019-03-30T17:22:04.431Z,10.90
2019-03-30T17:24:35.408Z,10.70
2019-03-30T17:27:06.338Z,9.60
2019-03-30T17:29:37.405Z,9.90
2019-03-30T17:32:08.327Z,9.63
2019-03-30T17:34:39.207Z,9.87
2019-03-30T17:37:14.295Z,8.40
2019-03-30T17:39:43.661Z,10.88
2019-03-30T17:42:14.558Z,12.93
2019-03-30T17:44:45.430Z,9.97
2019-03-30T17:47:16.362Z,13.00
2019-03-30T17:49:47.408Z,12.33
2019-03-30T17:52:18.322Z,8.90
2019-03-30T17:54:49.346Z,11.70
2019-03-30T17:57:20.328Z,8.60
2019-03-30T17:59:51.461Z,11.97
2019-03-30T18:02:23.262Z,10.80
2019-03-30T18:04:54.308Z,11.37
2019-03-30T18:07:25.231Z,11.57
2019-03-30T18:09:56.119Z,10.43
2019-03-30T18:12:27.076Z,8.30
2019-03-30T18:14:59.680Z,12.47
2019-03-30T18:17:30.598Z,10.97
2019-03-30T18:20:01.547Z,11.27
2019-03-30T18:22:32.539Z,13.73
2019-03-30T18:25:03.454Z,10.77
2019-03-30T18:27:34.830Z,12.13
2019-03-30T18:30:06.393Z,20.10
2019-03-30T18:32:37.490Z,85.87
2019-03-30T18:35:08.495Z,33.70
2019-03-30T18:37:40.320Z,20.63
2019-03-30T18:40:12.775Z,13.70
2019-03-30T18:42:43.750Z,15.73
2019-03-30T18:45:25.877Z,9.97
2019-03-30T18:48:01.049Z,12.30
2019-03-30T18:50:32.106Z,11.57
2019-03-30T18:53:03.057Z,12.63
2019-03-30T18:55:33.955Z,12.83
2019-03-30T18:58:04.944Z,12.63
2019-03-30T19:00:35.933Z,15.77
2019-03-30T19:03:07.058Z,14.57
2019-03-30T19:05:40.452Z,17.73
2019-03-30T19:08:11.944Z,16.77
2019-03-30T19:10:43.007Z,17.83
2019-03-30T19:13:13.959Z,18.80
2019-03-30T19:15:44.962Z,12.27
2019-03-30T19:18:16.225Z,15.13
2019-03-30T19:20:47.110Z,10.70
2019-03-30T19:23:18.058Z,14.73
2019-03-30T19:25:50.099Z,18.20
2019-03-30T19:28:20.989Z,20.70
2019-03-30T19:30:51.960Z,35.27
2019-03-30T19:33:22.942Z,52.70
2019-03-30T19:35:53.868Z,29.27
2019-03-30T19:38:25.671Z,29.40
2019-03-30T19:40:56.582Z,34.90
2019-03-30T19:43:27.492Z,34.43
2019-03-30T19:45:58.535Z,54.10
2019-03-30T19:48:29.460Z,37.07
2019-03-30T19:51:00.454Z,31.13
2019-03-30T19:53:31.474Z,28.30
2019-03-30T19:56:02.406Z,41.57
2019-03-30T19:58:33.814Z,41.67
2019-03-30T20:01:06.239Z,32.97
2019-03-30T20:03:37.302Z,32.17
2019-03-30T20:06:08.261Z,28.43
2019-03-30T20:08:40.403Z,29.95
2019-03-30T20:11:11.404Z,29.27
2019-03-30T20:13:42.327Z,35.60
2019-03-30T20:16:13.440Z,40.10
2019-03-30T20:18:44.497Z,40.00
2019-03-30T20:21:16.642Z,53.57
2019-03-30T20:23:48.424Z,84.22
2019-03-30T20:26:19.626Z,58.73
2019-03-30T20:28:51.051Z,33.00
2019-03-30T20:31:22.931Z,30.37
2019-03-30T20:33:53.992Z,20.07
2019-03-30T20:36:24.919Z,16.83
2019-03-30T20:38:56.222Z,15.57
2019-03-30T20:41:27.311Z,22.13
2019-03-30T20:43:59.949Z,28.40
2019-03-30T20:46:31.719Z,27.42
2019-03-30T20:49:02.755Z,28.83
2019-03-30T20:51:33.813Z,17.30
2019-03-30T20:54:04.882Z,13.13
2019-03-30T20:56:35.957Z,20.33
2019-03-30T20:59:06.902Z,19.13
2019-03-30T21:01:38.519Z,23.83
2019-03-30T21:04:11.386Z,18.23
2019-03-30T21:06:42.292Z,16.10
2019-03-30T21:09:13.480Z,15.93
2019-03-30T21:11:44.437Z,18.43
2019-03-30T21:14:15.506Z,16.63
2019-03-30T21:16:46.993Z,14.87
2019-03-30T21:19:17.981Z,14.87
2019-03-30T21:21:49.165Z,14.57
2019-03-30T21:24:20.197Z,17.33
2019-03-30T21:26:51.093Z,14.50
2019-03-30T21:29:22.793Z,15.17
2019-03-30T21:31:53.667Z,11.70
2019-03-30T21:34:24.756Z,14.13
2019-03-30T21:36:55.672Z,11.63
2019-03-30T21:39:26.594Z,13.43
2019-03-30T21:41:57.716Z,11.20
2019-03-30T21:44:28.610Z,12.90
2019-03-30T21:46:59.487Z,11.43
2019-03-30T21:49:31.142Z,12.20
2019-03-30T21:52:02.227Z,13.37
2019-03-30T21:54:33.240Z,14.13
2019-03-30T21:57:04.126Z,13.57
2019-03-30T21:59:35.143Z,13.53
2019-03-30T22:02:06.026Z,13.50
2019-03-30T22:04:36.947Z,16.67
2019-03-30T22:07:08.528Z,14.53
2019-03-30T22:09:39.701Z,11.77
2019-03-30T22:12:10.642Z,12.33
2019-03-30T22:14:41.624Z,12.80
2019-03-30T22:17:12.599Z,11.30
2019-03-30T22:19:43.579Z,11.80
2019-03-30T22:22:14.523Z,11.03
2019-03-30T22:24:45.722Z,11.43
2019-03-30T22:27:16.730Z,10.60
2019-03-30T22:29:47.730Z,13.30
2019-03-30T22:32:18.666Z,15.30
2019-03-30T22:34:49.601Z,14.87
2019-03-30T22:37:20.539Z,12.90
2019-03-30T22:39:51.539Z,14.43
2019-03-30T22:42:22.527Z,15.77
2019-03-30T22:44:53.563Z,15.67
2019-03-30T22:47:24.531Z,15.73
2019-03-30T22:49:56.013Z,16.40
2019-03-30T22:52:26.967Z,22.80
2019-03-30T22:54:57.931Z,16.47
2019-03-30T22:57:28.887Z,16.97
2019-03-30T23:00:38.993Z,16.47
2019-03-30T23:03:11.404Z,17.50
2019-03-30T23:05:42.404Z,16.27
2019-03-30T23:08:13.474Z,17.63
2019-03-30T23:10:44.468Z,19.70
2019-03-30T23:13:15.621Z,18.43
2019-03-30T23:15:46.591Z,18.98
2019-03-30T23:18:17.735Z,13.67
2019-03-30T23:20:48.823Z,13.65
2019-03-30T23:23:19.803Z,16.33
2019-03-30T23:25:51.133Z,15.57
2019-03-30T23:28:22.116Z,14.60
2019-03-30T23:30:54.746Z,15.57
2019-03-30T23:33:27.425Z,16.17
2019-03-30T23:36:00.247Z,16.33
2019-03-30T23:38:33.519Z,14.40
2019-03-30T23:41:06.166Z,13.93
2019-03-30T23:43:38.733Z,14.07
2019-03-30T23:46:12.669Z,17.57
2019-03-30T23:48:45.430Z,14.47
2019-03-30T23:51:18.057Z,13.10
2019-03-30T23:53:50.894Z,13.28
2019-03-30T23:56:23.786Z,13.53
2019-03-30T23:58:54.962Z,17.73
